sensor_id;sensor_type;location;lat;lon;timestamp;pressure;altitude;pressure_sealevel;temperature;humidity
13080;BME280;6606;49.154;9.280;2023-01-28T00:00:35;100345.03;;;2.51;100.00
13080;BME280;6606;49.154;9.280;2023-01-28T00:03:17;100331.94;;;2.54;100.00
13080;BME280;6606;49.154;9.280;2023-01-28T00:06:01;100345.03;;;2.54;100.00
13080;BME280;6606;49.154;9.280;2023-01-28T00:08:43;100349.41;;;2.52;100.00
13080;BME280;6606;49.154;9.280;2023-01-28T00:11:26;100353.72;;;2.56;100.00
13080;BME280;6606;49.154;9.280;2023-01-28T00:14:09;100351.09;;;2.56;100.00
13080;BME280;6606;49.154;9.280;2023-01-28T00:16:51;100361.63;;;2.47;100.00
13080;BME280;6606;49.154;9.280;2023-01-28T00:19:33;100357.31;;;2.41;100.00
13080;BME280;6606;49.154;9.280;2023-01-28T00:22:15;100361.69;;;2.41;100.00
13080;BME280;6606;49.154;9.280;2023-01-28T00:24:56;100358.09;;;2.57;100.00
13080;BME280;6606;49.154;9.280;2023-01-28T00:27:40;100354.59;;;2.55;100.00
13080;BME280;6606;49.154;9.280;2023-01-28T00:30:21;100353.75;;;2.49;100.00
13080;BME280;6606;49.154;9.280;2023-01-28T00:33:03;100354.59;;;2.58;100.00
13080;BME280;6606;49.154;9.280;2023-01-28T00:35:45;100348.50;;;2.55;100.00
13080;BME280;6606;49.154;9.280;2023-01-28T00:38:27;100355.41;;;2.63;100.00
13080;BME280;6606;49.154;9.280;2023-01-28T00:41:11;100356.28;;;2.66;100.00
13080;BME280;6606;49.154;9.280;2023-01-28T00:43:54;100348.41;;;2.69;100.00
13080;BME280;6606;49.154;9.280;2023-01-28T00:46:36;100344.09;;;2.61;100.00
13080;BME280;6606;49.154;9.280;2023-01-28T00:49:17;100346.78;;;2.52;100.00
13080;BME280;6606;49.154;9.280;2023-01-28T00:51:59;100352.88;;;2.54;100.00
13080;BME280;6606;49.154;9.280;2023-01-28T00:54:41;100347.66;;;2.54;100.00
13080;BME280;6606;49.154;9.280;2023-01-28T00:57:22;100349.38;;;2.55;100.00
13080;BME280;6606;49.154;9.280;2023-01-28T01:00:07;100344.13;;;2.55;100.00
13080;BME280;6606;49.154;9.280;2023-01-28T01:02:49;100340.63;;;2.59;100.00
13080;BME280;6606;49.154;9.280;2023-01-28T01:05:30;100345.88;;;2.58;100.00
13080;BME280;6606;49.154;9.280;2023-01-28T01:08:14;100337.19;;;2.53;100.00
13080;BME280;6606;49.154;9.280;2023-01-28T01:10:57;100346.88;;;2.38;100.00
13080;BME280;6606;49.154;9.280;2023-01-28T01:13:39;100344.16;;;2.52;100.00
13080;BME280;6606;49.154;9.280;2023-01-28T01:16:24;100339.81;;;2.48;100.00
13080;BME280;6606;49.154;9.280;2023-01-28T01:19:06;100340.66;;;2.53;100.00
13080;BME280;6606;49.154;9.280;2023-01-28T01:21:49;100346.72;;;2.58;100.00
13080;BME280;6606;49.154;9.280;2023-01-28T01:24:31;100349.41;;;2.52;100.00
13080;BME280;6606;49.154;9.280;2023-01-28T01:27:13;100349.38;;;2.54;100.00
13080;BME280;6606;49.154;9.280;2023-01-28T01:29:55;100340.59;;;2.61;100.00
13080;BME280;6606;49.154;9.280;2023-01-28T01:32:39;100345.75;;;2.73;100.00
13080;BME280;6606;49.154;9.280;2023-01-28T01:35:21;100348.38;;;2.72;100.00
13080;BME280;6606;49.154;9.280;2023-01-28T01:38:03;100344.88;;;2.74;100.00
13080;BME280;6606;49.154;9.280;2023-01-28T01:40:45;100345.78;;;2.69;100.00
13080;BME280;6606;49.154;9.280;2023-01-28T01:43:48;100342.25;;;2.76;100.00
13080;BME280;6606;49.154;9.280;2023-01-28T01:46:33;100354.44;;;2.80;100.00
13080;BME280;6606;49.154;9.280;2023-01-28T01:49:20;100349.31;;;2.61;100.00
13080;BME280;6606;49.154;9.280;2023-01-28T01:52:07;100354.53;;;2.64;100.00
13080;BME280;6606;49.154;9.280;2023-01-28T01:54:52;100344.94;;;2.67;100.00
13080;BME280;6606;49.154;9.280;2023-01-28T01:57:36;100351.88;;;2.74;100.00
13080;BME280;6606;49.154;9.280;2023-01-28T02:00:18;100355.44;;;2.65;100.00
13080;BME280;6606;49.154;9.280;2023-01-28T02:03:01;100351.00;;;2.73;100.00
13080;BME280;6606;49.154;9.280;2023-01-28T02:05:44;100348.38;;;2.73;100.00
13080;BME280;6606;49.154;9.280;2023-01-28T02:08:26;100357.97;;;2.76;100.00
13080;BME280;6606;49.154;9.280;2023-01-28T02:11:09;100356.19;;;2.78;100.00
13080;BME280;6606;49.154;9.280;2023-01-28T02:13:53;100364.88;;;2.86;100.00
13080;BME280;6606;49.154;9.280;2023-01-28T02:16:36;100356.19;;;2.81;100.00
13080;BME280;6606;49.154;9.280;2023-01-28T02:19:19;100354.50;;;2.71;100.00
13080;BME280;6606;49.154;9.280;2023-01-28T02:22:15;100358.00;;;2.73;100.00
13080;BME280;6606;49.154;9.280;2023-01-28T02:25:31;100353.66;;;2.66;100.00
13080;BME280;6606;49.154;9.280;2023-01-28T02:28:22;100352.72;;;2.76;100.00
13080;BME280;6606;49.154;9.280;2023-01-28T02:31:13;100358.75;;;2.85;100.00
13080;BME280;6606;49.154;9.280;2023-01-28T02:34:00;100353.50;;;2.87;100.00
13080;BME280;6606;49.154;9.280;2023-01-28T02:36:48;100356.16;;;2.84;100.00
13080;BME280;6606;49.154;9.280;2023-01-28T02:39:35;100357.00;;;2.83;100.00
13080;BME280;6606;49.154;9.280;2023-01-28T02:42:22;100355.25;;;2.85;100.00
13080;BME280;6606;49.154;9.280;2023-01-28T02:45:15;100361.38;;;2.84;100.00
13080;BME280;6606;49.154;9.280;2023-01-28T02:47:59;100365.75;;;2.83;100.00
13080;BME280;6606;49.154;9.280;2023-01-28T02:50:47;100364.88;;;2.86;100.00
13080;BME280;6606;49.154;9.280;2023-01-28T02:53:34;100362.16;;;2.94;100.00
13080;BME280;6606;49.154;9.280;2023-01-28T02:56:28;100368.31;;;2.91;100.00
13080;BME280;6606;49.154;9.280;2023-01-28T02:59:20;100367.44;;;2.92;100.00
13080;BME280;6606;49.154;9.280;2023-01-28T03:02:28;100370.84;;;2.99;100.00
13080;BME280;6606;49.154;9.280;2023-01-28T03:05:16;100372.63;;;3.00;100.00
13080;BME280;6606;49.154;9.280;2023-01-28T03:08:04;100371.75;;;2.99;100.00
13080;BME280;6606;49.154;9.280;2023-01-28T03:11:06;100374.34;;;3.01;100.00
13080;BME280;6606;49.154;9.280;2023-01-28T03:14:06;100378.66;;;3.06;100.00
13080;BME280;6606;49.154;9.280;2023-01-28T03:17:11;100368.22;;;3.03;100.00
13080;BME280;6606;49.154;9.280;2023-01-28T03:20:15;100376.94;;;3.02;100.00
13080;BME280;6606;49.154;9.280;2023-01-28T03:23:21;100384.03;;;2.91;100.00
13080;BME280;6606;49.154;9.280;2023-01-28T03:26:21;100377.03;;;2.90;100.00
13080;BME280;6606;49.154;9.280;2023-01-28T03:29:24;100379.63;;;2.95;100.00
13080;BME280;6606;49.154;9.280;2023-01-28T03:32:27;100384.84;;;2.96;100.00
13080;BME280;6606;49.154;9.280;2023-01-28T03:35:31;100384.84;;;2.99;100.00
13080;BME280;6606;49.154;9.280;2023-01-28T03:38:31;100380.47;;;2.98;100.00
13080;BME280;6606;49.154;9.280;2023-01-28T03:41:23;100387.50;;;2.90;100.00
13080;BME280;6606;49.154;9.280;2023-01-28T03:44:07;100389.25;;;2.88;100.00
13080;BME280;6606;49.154;9.280;2023-01-28T03:47:07;100391.03;;;2.83;100.00
13080;BME280;6606;49.154;9.280;2023-01-28T03:49:52;100394.59;;;2.76;100.00
13080;BME280;6606;49.154;9.280;2023-01-28T03:52:37;100394.59;;;2.76;100.00
13080;BME280;6606;49.154;9.280;2023-01-28T03:55:54;100396.34;;;2.74;100.00
13080;BME280;6606;49.154;9.280;2023-01-28T03:58:36;100393.75;;;2.69;100.00
13080;BME280;6606;49.154;9.280;2023-01-28T04:01:32;100393.00;;;2.53;100.00
13080;BME280;6606;49.154;9.280;2023-01-28T04:04:13;100397.41;;;2.47;100.00
13080;BME280;6606;49.154;9.280;2023-01-28T04:07:04;100401.72;;;2.52;100.00
13080;BME280;6606;49.154;9.280;2023-01-28T04:10:11;100404.31;;;2.58;100.00
13080;BME280;6606;49.154;9.280;2023-01-28T04:13:02;100403.47;;;2.50;100.00
13080;BME280;6606;49.154;9.280;2023-01-28T04:15:45;100400.88;;;2.52;100.00
13080;BME280;6606;49.154;9.280;2023-01-28T04:18:28;100406.97;;;2.49;100.00
13080;BME280;6606;49.154;9.280;2023-01-28T04:21:11;100405.19;;;2.57;100.00
13080;BME280;6606;49.154;9.280;2023-01-28T04:23:53;100407.84;;;2.54;100.00
13080;BME280;6606;49.154;9.280;2023-01-28T04:26:36;100413.91;;;2.53;100.00
13080;BME280;6606;49.154;9.280;2023-01-28T04:29:18;100406.97;;;2.52;100.00
13080;BME280;6606;49.154;9.280;2023-01-28T04:32:01;100415.66;;;2.57;100.00
13080;BME280;6606;49.154;9.280;2023-01-28T04:35:18;100409.53;;;2.60;100.00
13080;BME280;6606;49.154;9.280;2023-01-28T04:38:21;100412.22;;;2.43;100.00
13080;BME280;6606;49.154;9.280;2023-01-28T04:41:33;100429.75;;;2.29;100.00
13080;BME280;6606;49.154;9.280;2023-01-28T04:44:21;100421.94;;;2.21;100.00
13080;BME280;6606;49.154;9.280;2023-01-28T04:47:17;100409.66;;;2.34;100.00
13080;BME280;6606;49.154;9.280;2023-01-28T04:50:19;100421.84;;;2.44;100.00
13080;BME280;6606;49.154;9.280;2023-01-28T04:53:19;100421.84;;;2.38;100.00
13080;BME280;6606;49.154;9.280;2023-01-28T04:56:12;100430.59;;;2.37;100.00
13080;BME280;6606;49.154;9.280;2023-01-28T04:58:54;100429.69;;;2.41;100.00
13080;BME280;6606;49.154;9.280;2023-01-28T05:01:38;100429.69;;;2.41;100.00
13080;BME280;6606;49.154;9.280;2023-01-28T05:04:20;100430.59;;;2.38;100.00
13080;BME280;6606;49.154;9.280;2023-01-28T05:07:02;100422.72;;;2.37;100.00
13080;BME280;6606;49.154;9.280;2023-01-28T05:09:46;100421.84;;;2.38;100.00
13080;BME280;6606;49.154;9.280;2023-01-28T05:12:28;100423.59;;;2.37;100.00
13080;BME280;6606;49.154;9.280;2023-01-28T05:15:15;100436.69;;;2.36;100.00
13080;BME280;6606;49.154;9.280;2023-01-28T05:17:58;100429.75;;;2.27;100.00
13080;BME280;6606;49.154;9.280;2023-01-28T05:20:43;100441.94;;;2.31;100.00
13080;BME280;6606;49.154;9.280;2023-01-28T05:23:24;100440.22;;;2.26;100.00
13080;BME280;6606;49.154;9.280;2023-01-28T05:26:09;100444.56;;;2.22;100.00
13080;BME280;6606;49.154;9.280;2023-01-28T05:28:52;100445.44;;;2.29;100.00
13080;BME280;6606;49.154;9.280;2023-01-28T05:31:33;100448.03;;;2.27;100.00
13080;BME280;6606;49.154;9.280;2023-01-28T05:34:16;100437.59;;;2.29;100.00
13080;BME280;6606;49.154;9.280;2023-01-28T05:36:58;100436.69;;;2.33;100.00
13080;BME280;6606;49.154;9.280;2023-01-28T05:39:50;100444.53;;;2.34;100.00
13080;BME280;6606;49.154;9.280;2023-01-28T05:42:31;100438.41;;;2.40;100.00
13080;BME280;6606;49.154;9.280;2023-01-28T05:45:33;100438.44;;;2.37;100.00
13080;BME280;6606;49.154;9.280;2023-01-28T05:48:27;100437.56;;;2.36;100.00
13080;BME280;6606;49.154;9.280;2023-01-28T05:51:31;100447.19;;;2.24;100.00
13080;BME280;6606;49.154;9.280;2023-01-28T05:54:13;100448.94;;;2.31;100.00
13080;BME280;6606;49.154;9.280;2023-01-28T05:56:55;100455.00;;;2.37;100.00
13080;BME280;6606;49.154;9.280;2023-01-28T05:59:36;100451.53;;;2.29;100.00
13080;BME280;6606;49.154;9.280;2023-01-28T06:02:18;100454.97;;;2.40;100.00
13080;BME280;6606;49.154;9.280;2023-01-28T06:05:01;100459.34;;;2.41;100.00
13080;BME280;6606;49.154;9.280;2023-01-28T06:07:45;100459.38;;;2.34;100.00
13080;BME280;6606;49.154;9.280;2023-01-28T06:10:27;100468.94;;;2.39;100.00
13080;BME280;6606;49.154;9.280;2023-01-28T06:13:09;100468.03;;;2.47;100.00
13080;BME280;6606;49.154;9.280;2023-01-28T06:16:11;100468.06;;;2.39;100.00
13080;BME280;6606;49.154;9.280;2023-01-28T06:19:13;100477.66;;;2.41;100.00
13080;BME280;6606;49.154;9.280;2023-01-28T06:21:55;100483.72;;;2.45;100.00
13080;BME280;6606;49.154;9.280;2023-01-28T06:24:38;100486.34;;;2.45;100.00
13080;BME280;6606;49.154;9.280;2023-01-28T06:27:19;100488.09;;;2.49;100.00
13080;BME280;6606;49.154;9.280;2023-01-28T06:30:01;100492.41;;;2.53;100.00
13080;BME280;6606;49.154;9.280;2023-01-28T06:32:43;100490.72;;;2.49;100.00
13080;BME280;6606;49.154;9.280;2023-01-28T06:35:25;100497.66;;;2.53;100.00
13080;BME280;6606;49.154;9.280;2023-01-28T06:38:06;100496.81;;;2.50;100.00
13080;BME280;6606;49.154;9.280;2023-01-28T06:40:53;100506.38;;;2.55;100.00
13080;BME280;6606;49.154;9.280;2023-01-28T06:43:35;100503.75;;;2.57;100.00
13080;BME280;6606;49.154;9.280;2023-01-28T06:46:17;100509.84;;;2.57;100.00
13080;BME280;6606;49.154;9.280;2023-01-28T06:48:58;100503.75;;;2.51;100.00
13080;BME280;6606;49.154;9.280;2023-01-28T06:51:40;100503.75;;;2.54;100.00
13080;BME280;6606;49.154;9.280;2023-01-28T06:54:22;100512.50;;;2.50;100.00
13080;BME280;6606;49.154;9.280;2023-01-28T06:57:05;100509.00;;;2.52;100.00
13080;BME280;6606;49.154;9.280;2023-01-28T06:59:46;100509.88;;;2.54;100.00
13080;BME280;6606;49.154;9.280;2023-01-28T07:02:28;100503.75;;;2.57;100.00
13080;BME280;6606;49.154;9.280;2023-01-28T07:05:10;100521.19;;;2.59;100.00
13080;BME280;6606;49.154;9.280;2023-01-28T07:07:52;100537.72;;;2.64;100.00
13080;BME280;6606;49.154;9.280;2023-01-28T07:10:34;100527.25;;;2.64;100.00
13080;BME280;6606;49.154;9.280;2023-01-28T07:13:17;100529.03;;;2.62;100.00
13080;BME280;6606;49.154;9.280;2023-01-28T07:15:59;100529.94;;;2.52;100.00
13080;BME280;6606;49.154;9.280;2023-01-28T07:18:40;100529.91;;;2.60;100.00
13080;BME280;6606;49.154;9.280;2023-01-28T07:21:22;100531.63;;;2.66;100.00
13080;BME280;6606;49.154;9.280;2023-01-28T07:24:04;100535.09;;;2.74;100.00
13080;BME280;6606;49.154;9.280;2023-01-28T07:26:46;100533.34;;;2.70;100.00
13080;BME280;6606;49.154;9.280;2023-01-28T07:29:30;100536.91;;;2.59;100.00
13080;BME280;6606;49.154;9.280;2023-01-28T07:32:14;100538.66;;;2.50;100.00
13080;BME280;6606;49.154;9.280;2023-01-28T07:34:58;100536.88;;;2.61;100.00
13080;BME280;6606;49.154;9.280;2023-01-28T07:37:56;100537.72;;;2.71;100.00
13080;BME280;6606;49.154;9.280;2023-01-28T07:40:39;100541.22;;;2.67;100.00
13080;BME280;6606;49.154;9.280;2023-01-28T07:43:22;100544.69;;;2.69;100.00
13080;BME280;6606;49.154;9.280;2023-01-28T07:46:05;100543.00;;;2.55;100.00
13080;BME280;6606;49.154;9.280;2023-01-28T07:48:47;100544.72;;;2.56;100.00
13080;BME280;6606;49.154;9.280;2023-01-28T07:51:29;100542.13;;;2.56;100.00
13080;BME280;6606;49.154;9.280;2023-01-28T07:54:11;100543.84;;;2.65;100.00
13080;BME280;6606;49.154;9.280;2023-01-28T07:56:53;100549.91;;;2.75;100.00
13080;BME280;6606;49.154;9.280;2023-01-28T07:59:35;100549.09;;;2.59;100.00
13080;BME280;6606;49.154;9.280;2023-01-28T08:02:18;100549.13;;;2.53;100.00
13080;BME280;6606;49.154;9.280;2023-01-28T08:05:00;100552.59;;;2.62;100.00
13080;BME280;6606;49.154;9.280;2023-01-28T08:07:42;100553.47;;;2.58;100.00
13080;BME280;6606;49.154;9.280;2023-01-28T08:10:24;100556.94;;;2.60;100.00
13080;BME280;6606;49.154;9.280;2023-01-28T08:13:06;100558.66;;;2.64;100.00
13080;BME280;6606;49.154;9.280;2023-01-28T08:15:48;100561.19;;;2.89;100.00
13080;BME280;6606;49.154;9.280;2023-01-28T08:18:31;100558.56;;;2.91;100.00
13080;BME280;6606;49.154;9.280;2023-01-28T08:21:13;100569.84;;;2.99;100.00
13080;BME280;6606;49.154;9.280;2023-01-28T08:23:54;100566.28;;;3.12;100.00
13080;BME280;6606;49.154;9.280;2023-01-28T08:26:36;100569.81;;;3.11;100.00
13080;BME280;6606;49.154;9.280;2023-01-28T08:29:18;100568.09;;;3.10;100.00
13080;BME280;6606;49.154;9.280;2023-01-28T08:31:59;100577.63;;;3.17;100.00
13080;BME280;6606;49.154;9.280;2023-01-28T08:34:42;100570.66;;;3.15;100.00
13080;BME280;6606;49.154;9.280;2023-01-28T08:37:24;100575.03;;;3.16;100.00
13080;BME280;6606;49.154;9.280;2023-01-28T08:40:07;100577.72;;;3.00;100.00
13080;BME280;6606;49.154;9.280;2023-01-28T08:42:49;100577.75;;;2.97;100.00
13080;BME280;6606;49.154;9.280;2023-01-28T08:45:32;100576.88;;;2.97;100.00
13080;BME280;6606;49.154;9.280;2023-01-28T08:48:15;100579.50;;;2.91;100.00
13080;BME280;6606;49.154;9.280;2023-01-28T08:50:59;100576.03;;;2.90;100.00
13080;BME280;6606;49.154;9.280;2023-01-28T08:53:40;100569.91;;;2.90;100.00
13080;BME280;6606;49.154;9.280;2023-01-28T08:56:22;100583.94;;;2.81;100.00
13080;BME280;6606;49.154;9.280;2023-01-28T08:59:04;100588.28;;;2.82;100.00
13080;BME280;6606;49.154;9.280;2023-01-28T09:01:45;100580.47;;;2.63;100.00
13080;BME280;6606;49.154;9.280;2023-01-28T09:04:27;100578.63;;;2.93;100.00
13080;BME280;6606;49.154;9.280;2023-01-28T09:07:10;100582.22;;;2.71;100.00
13080;BME280;6606;49.154;9.280;2023-01-28T09:09:52;100586.53;;;2.75;100.00
13080;BME280;6606;49.154;9.280;2023-01-28T09:12:34;100590.91;;;2.83;100.00
13080;BME280;6606;49.154;9.280;2023-01-28T09:15:16;100590.84;;;2.93;100.00
13080;BME280;6606;49.154;9.280;2023-01-28T09:17:58;100607.47;;;2.87;100.00
13080;BME280;6606;49.154;9.280;2023-01-28T09:20:40;100602.28;;;2.73;100.00
13080;BME280;6606;49.154;9.280;2023-01-28T09:23:23;100602.28;;;2.73;100.00
13080;BME280;6606;49.154;9.280;2023-01-28T09:26:05;100611.88;;;2.76;100.00
13080;BME280;6606;49.154;9.280;2023-01-28T09:28:48;100609.19;;;2.94;100.00
13080;BME280;6606;49.154;9.280;2023-01-28T09:31:30;100610.88;;;3.07;100.00
13080;BME280;6606;49.154;9.280;2023-01-28T09:34:11;100616.13;;;2.98;100.00
13080;BME280;6606;49.154;9.280;2023-01-28T09:36:53;100620.59;;;2.73;100.00
13080;BME280;6606;49.154;9.280;2023-01-28T09:39:36;100622.34;;;2.70;100.00
13080;BME280;6606;49.154;9.280;2023-01-28T09:42:31;100621.53;;;2.52;100.00
13080;BME280;6606;49.154;9.280;2023-01-28T09:45:23;100625.88;;;2.46;100.00
13080;BME280;6606;49.154;9.280;2023-01-28T09:48:11;100619.81;;;2.44;100.00
13080;BME280;6606;49.154;9.280;2023-01-28T09:50:54;100628.47;;;2.53;100.00
13080;BME280;6606;49.154;9.280;2023-01-28T09:53:42;100628.53;;;2.41;100.00
13080;BME280;6606;49.154;9.280;2023-01-28T09:56:29;100632.84;;;2.65;100.00
13080;BME280;6606;49.154;9.280;2023-01-28T09:59:17;100631.91;;;2.86;100.00
13080;BME280;6606;49.154;9.280;2023-01-28T10:02:07;100630.13;;;2.90;100.00
13080;BME280;6606;49.154;9.280;2023-01-28T10:04:58;100631.81;;;3.01;100.00
13080;BME280;6606;49.154;9.280;2023-01-28T10:07:51;100629.13;;;3.20;100.00
13080;BME280;6606;49.154;9.280;2023-01-28T10:10:43;100626.47;;;3.32;100.00
13080;BME280;6606;49.154;9.280;2023-01-28T10:13:35;100631.59;;;3.49;100.00
13080;BME280;6606;49.154;9.280;2023-01-28T10:16:25;100629.88;;;3.43;100.00
13080;BME280;6606;49.154;9.280;2023-01-28T10:19:13;100631.56;;;3.53;100.00
13080;BME280;6606;49.154;9.280;2023-01-28T10:22:01;100630.66;;;3.61;100.00
13080;BME280;6606;49.154;9.280;2023-01-28T10:24:46;100628.19;;;3.39;100.00
13080;BME280;6606;49.154;9.280;2023-01-28T10:27:30;100620.47;;;3.05;100.00
13080;BME280;6606;49.154;9.280;2023-01-28T10:30:17;100622.88;;;3.48;100.00
13080;BME280;6606;49.154;9.280;2023-01-28T10:33:03;100612.25;;;3.70;100.00
13080;BME280;6606;49.154;9.280;2023-01-28T10:35:45;100611.34;;;3.72;100.00
13080;BME280;6606;49.154;9.280;2023-01-28T10:38:29;100631.53;;;3.63;100.00
13080;BME280;6606;49.154;9.280;2023-01-28T10:41:16;100614.84;;;3.70;100.00
13080;BME280;6606;49.154;9.280;2023-01-28T10:44:00;100624.47;;;3.69;100.00
13080;BME280;6606;49.154;9.280;2023-01-28T10:46:44;100620.13;;;3.68;100.00
13080;BME280;6606;49.154;9.280;2023-01-28T10:49:29;100620.94;;;3.77;100.00
13080;BME280;6606;49.154;9.280;2023-01-28T10:52:13;100616.63;;;3.65;100.00
13080;BME280;6606;49.154;9.280;2023-01-28T10:54:59;100631.56;;;3.53;100.00
13080;BME280;6606;49.154;9.280;2023-01-28T10:57:41;100621.13;;;3.50;100.00
13080;BME280;6606;49.154;9.280;2023-01-28T11:00:25;100622.00;;;3.49;100.00
13080;BME280;6606;49.154;9.280;2023-01-28T11:03:17;100634.25;;;3.41;100.00
13080;BME280;6606;49.154;9.280;2023-01-28T11:05:59;100626.41;;;3.44;100.00
13080;BME280;6606;49.154;9.280;2023-01-28T11:08:43;100631.75;;;3.26;100.00
13080;BME280;6606;49.154;9.280;2023-01-28T11:11:26;100631.75;;;3.26;100.00
13080;BME280;6606;49.154;9.280;2023-01-28T11:14:19;100622.97;;;3.36;100.00
13080;BME280;6606;49.154;9.280;2023-01-28T11:17:00;100625.53;;;3.38;100.00
13080;BME280;6606;49.154;9.280;2023-01-28T11:19:44;100629.13;;;3.24;100.00
13080;BME280;6606;49.154;9.280;2023-01-28T11:22:31;100634.38;;;3.23;100.00
13080;BME280;6606;49.154;9.280;2023-01-28T11:25:16;100642.22;;;3.26;100.00
13080;BME280;6606;49.154;9.280;2023-01-28T11:28:00;100639.59;;;3.26;100.00
13080;BME280;6606;49.154;9.280;2023-01-28T11:30:49;100642.28;;;3.07;100.00
13080;BME280;6606;49.154;9.280;2023-01-28T11:33:36;100633.56;;;3.08;100.00
13080;BME280;6606;49.154;9.280;2023-01-28T11:36:21;100632.69;;;3.13;100.00
13080;BME280;6606;49.154;9.280;2023-01-28T11:39:15;100637.91;;;3.06;100.00
13080;BME280;6606;49.154;9.280;2023-01-28T11:42:14;100645.69;;;3.25;100.00
13080;BME280;6606;49.154;9.280;2023-01-28T11:44:56;100648.31;;;3.29;100.00
13080;BME280;6606;49.154;9.280;2023-01-28T11:47:48;100641.38;;;3.16;100.00
13080;BME280;6606;49.154;9.280;2023-01-28T11:50:37;100632.63;;;3.19;100.00
13080;BME280;6606;49.154;9.280;2023-01-28T11:53:45;100647.50;;;3.14;100.00
13080;BME280;6606;49.154;9.280;2023-01-28T11:56:43;100631.78;;;3.14;100.00
13080;BME280;6606;49.154;9.280;2023-01-28T11:59:40;100644.84;;;3.24;100.00
13080;BME280;6606;49.154;9.280;2023-01-28T12:02:42;100638.69;;;3.30;100.00
13080;BME280;6606;49.154;9.280;2023-01-28T12:05:45;100649.22;;;3.21;100.00
13080;BME280;6606;49.154;9.280;2023-01-28T12:08:36;100645.69;;;3.31;100.00
13080;BME280;6606;49.154;9.280;2023-01-28T12:11:27;100648.28;;;3.33;100.00
13080;BME280;6606;49.154;9.280;2023-01-28T12:14:29;100635.13;;;3.43;100.00
13080;BME280;6606;49.154;9.280;2023-01-28T12:17:22;100639.44;;;3.55;100.00
13080;BME280;6606;49.154;9.280;2023-01-28T12:20:14;100648.22;;;3.48;100.00
13080;BME280;6606;49.154;9.280;2023-01-28T12:23:08;100645.59;;;3.46;100.00
13080;BME280;6606;49.154;9.280;2023-01-28T12:26:03;100635.13;;;3.43;100.00
13080;BME280;6606;49.154;9.280;2023-01-28T12:28:56;100643.78;;;3.55;100.00
13080;BME280;6606;49.154;9.280;2023-01-28T12:32:02;100631.66;;;3.38;100.00
13080;BME280;6606;49.154;9.280;2023-01-28T12:35:04;100614.16;;;3.43;100.00
13080;BME280;6606;49.154;9.280;2023-01-28T12:37:58;100624.63;;;3.49;100.00
13080;BME280;6606;49.154;9.280;2023-01-28T12:40:49;100628.13;;;3.47;100.00
13080;BME280;6606;49.154;9.280;2023-01-28T12:43:44;100622.97;;;3.36;100.00
13080;BME280;6606;49.154;9.280;2023-01-28T12:46:37;100627.41;;;3.20;100.00
13080;BME280;6606;49.154;9.280;2023-01-28T12:49:24;100619.44;;;3.37;100.00
13080;BME280;6606;49.154;9.280;2023-01-28T12:52:13;100621.19;;;3.38;100.00
13080;BME280;6606;49.154;9.280;2023-01-28T12:55:00;100621.19;;;3.38;100.00
13080;BME280;6606;49.154;9.280;2023-01-28T12:57:46;100625.50;;;3.45;100.00
13080;BME280;6606;49.154;9.280;2023-01-28T13:00:33;100623.75;;;3.47;100.00
13080;BME280;6606;49.154;9.280;2023-01-28T13:03:18;100608.75;;;3.69;100.00
13080;BME280;6606;49.154;9.280;2023-01-28T13:06:08;100607.69;;;3.93;100.00
13080;BME280;6606;49.154;9.280;2023-01-28T13:08:56;100611.19;;;3.94;100.00
13080;BME280;6606;49.154;9.280;2023-01-28T13:11:40;100610.16;;;4.12;100.00
13080;BME280;6606;49.154;9.280;2023-01-28T13:14:26;100617.94;;;4.23;100.00
13080;BME280;6606;49.154;9.280;2023-01-28T13:17:11;100619.75;;;4.14;100.00
13080;BME280;6606;49.154;9.280;2023-01-28T13:19:54;100620.59;;;4.21;100.00
13080;BME280;6606;49.154;9.280;2023-01-28T13:22:36;100620.63;;;4.16;100.00
13080;BME280;6606;49.154;9.280;2023-01-28T13:25:20;100623.19;;;4.24;100.00
13080;BME280;6606;49.154;9.280;2023-01-28T13:28:04;100616.97;;;4.34;100.00
13080;BME280;6606;49.154;9.280;2023-01-28T13:30:47;100618.88;;;4.18;100.00
13080;BME280;6606;49.154;9.280;2023-01-28T13:33:32;100622.53;;;3.97;100.00
13080;BME280;6606;49.154;9.280;2023-01-28T13:36:24;100624.38;;;3.83;100.00
13080;BME280;6606;49.154;9.280;2023-01-28T13:39:16;100613.84;;;3.86;100.00
13080;BME280;6606;49.154;9.280;2023-01-28T13:42:20;100625.19;;;3.91;100.00
13080;BME280;6606;49.154;9.280;2023-01-28T13:45:22;100628.69;;;3.89;100.00
13080;BME280;6606;49.154;9.280;2023-01-28T13:48:20;100629.53;;;3.94;100.00
13080;BME280;6606;49.154;9.280;2023-01-28T13:51:09;100620.88;;;3.87;100.00
13080;BME280;6606;49.154;9.280;2023-01-28T13:53:59;100633.84;;;4.04;100.00
13080;BME280;6606;49.154;9.280;2023-01-28T13:56:58;100631.34;;;3.87;100.00
13080;BME280;6606;49.154;9.280;2023-01-28T13:59:53;100640.75;;;4.16;100.00
13080;BME280;6606;49.154;9.280;2023-01-28T14:03:02;100645.28;;;3.95;100.00
13080;BME280;6606;49.154;9.280;2023-01-28T14:06:10;100634.84;;;3.89;100.00
13080;BME280;6606;49.154;9.280;2023-01-28T14:09:20;100637.41;;;3.95;100.00
13080;BME280;6606;49.154;9.280;2023-01-28T14:15:52;100652.38;;;3.78;100.00
13080;BME280;6606;49.154;9.280;2023-01-28T14:18:38;100661.22;;;3.68;100.00
13080;BME280;6606;49.154;9.280;2023-01-28T14:21:25;100663.16;;;3.34;100.00
13080;BME280;6606;49.154;9.280;2023-01-28T14:24:14;100664.75;;;3.55;100.00
13080;BME280;6606;49.154;9.280;2023-01-28T14:27:02;100663.97;;;3.45;100.00
13080;BME280;6606;49.154;9.280;2023-01-28T14:30:01;100670.09;;;3.33;100.00
13080;BME280;6606;49.154;9.280;2023-01-28T14:32:45;100679.81;;;3.16;100.00
13080;BME280;6606;49.154;9.280;2023-01-28T14:35:29;100672.75;;;3.27;100.00
13080;BME280;6606;49.154;9.280;2023-01-28T14:38:15;100673.72;;;3.03;100.00
13080;BME280;6606;49.154;9.280;2023-01-28T14:40:58;100683.34;;;3.02;100.00
13080;BME280;6606;49.154;9.280;2023-01-28T14:43:39;100682.44;;;3.06;100.00
13080;BME280;6606;49.154;9.280;2023-01-28T14:46:30;100685.91;;;3.12;100.00
13080;BME280;6606;49.154;9.280;2023-01-28T14:49:22;100694.69;;;3.07;100.00